sensor_id;sensor_type;location;lat;lon;timestamp;temperature;humidity
22968;DHT22;11650;48.106;-1.696;2023-07-13T00:00:33;16.90;99.90
22968;DHT22;11650;48.106;-1.696;2023-07-13T00:02:59;16.90;99.90
22968;DHT22;11650;48.106;-1.696;2023-07-13T00:05:25;16.80;99.90
22968;DHT22;11650;48.106;-1.696;2023-07-13T00:07:51;16.70;99.90
22968;DHT22;11650;48.106;-1.696;2023-07-13T00:10:18;16.70;99.90
22968;DHT22;11650;48.106;-1.696;2023-07-13T00:12:44;16.70;99.90
22968;DHT22;11650;48.106;-1.696;2023-07-13T00:15:19;16.70;99.90
22968;DHT22;11650;48.106;-1.696;2023-07-13T00:17:52;16.60;99.90
22968;DHT22;11650;48.106;-1.696;2023-07-13T00:20:18;16.50;99.90
22968;DHT22;11650;48.106;-1.696;2023-07-13T00:22:48;16.50;99.90
22968;DHT22;11650;48.106;-1.696;2023-07-13T00:25:14;16.40;99.90
22968;DHT22;11650;48.106;-1.696;2023-07-13T00:27:41;16.30;99.90
22968;DHT22;11650;48.106;-1.696;2023-07-13T00:30:07;16.30;99.90
22968;DHT22;11650;48.106;-1.696;2023-07-13T00:32:34;16.20;99.90
22968;DHT22;11650;48.106;-1.696;2023-07-13T00:35:00;16.20;99.90
22968;DHT22;11650;48.106;-1.696;2023-07-13T00:37:26;16.20;99.90
22968;DHT22;11650;48.106;-1.696;2023-07-13T00:39:52;16.20;99.90
22968;DHT22;11650;48.106;-1.696;2023-07-13T00:42:18;16.20;99.90
22968;DHT22;11650;48.106;-1.696;2023-07-13T00:47:37;16.10;99.90
22968;DHT22;11650;48.106;-1.696;2023-07-13T00:50:04;16.20;99.90
22968;DHT22;11650;48.106;-1.696;2023-07-13T00:52:31;16.10;99.90
22968;DHT22;11650;48.106;-1.696;2023-07-13T00:54:58;16.00;99.90
22968;DHT22;11650;48.106;-1.696;2023-07-13T00:57:24;16.00;99.90
22968;DHT22;11650;48.106;-1.696;2023-07-13T00:59:54;16.00;99.90
22968;DHT22;11650;48.106;-1.696;2023-07-13T01:02:21;16.00;99.90
22968;DHT22;11650;48.106;-1.696;2023-07-13T01:04:47;16.10;99.90
22968;DHT22;11650;48.106;-1.696;2023-07-13T01:07:13;16.00;99.90
22968;DHT22;11650;48.106;-1.696;2023-07-13T01:09:39;16.00;99.90
22968;DHT22;11650;48.106;-1.696;2023-07-13T01:12:05;16.00;99.90
22968;DHT22;11650;48.106;-1.696;2023-07-13T01:14:31;16.00;99.90
22968;DHT22;11650;48.106;-1.696;2023-07-13T01:16:57;16.00;99.90
22968;DHT22;11650;48.106;-1.696;2023-07-13T01:19:42;15.90;99.90
22968;DHT22;11650;48.106;-1.696;2023-07-13T01:24:37;15.90;99.90
22968;DHT22;11650;48.106;-1.696;2023-07-13T01:27:04;15.90;99.90
22968;DHT22;11650;48.106;-1.696;2023-07-13T01:29:32;16.00;99.90
22968;DHT22;11650;48.106;-1.696;2023-07-13T01:31:59;16.00;99.90
22968;DHT22;11650;48.106;-1.696;2023-07-13T01:34:26;16.00;99.90
22968;DHT22;11650;48.106;-1.696;2023-07-13T01:36:52;15.90;99.90
22968;DHT22;11650;48.106;-1.696;2023-07-13T01:39:22;16.00;99.90
22968;DHT22;11650;48.106;-1.696;2023-07-13T01:41:48;15.90;99.90
22968;DHT22;11650;48.106;-1.696;2023-07-13T01:44:14;15.90;99.90
22968;DHT22;11650;48.106;-1.696;2023-07-13T01:46:40;15.90;99.90
22968;DHT22;11650;48.106;-1.696;2023-07-13T01:49:06;15.90;99.90
22968;DHT22;11650;48.106;-1.696;2023-07-13T01:51:31;15.90;99.90
22968;DHT22;11650;48.106;-1.696;2023-07-13T01:53:57;15.80;99.90
22968;DHT22;11650;48.106;-1.696;2023-07-13T01:56:23;15.90;99.90
22968;DHT22;11650;48.106;-1.696;2023-07-13T01:58:49;15.90;99.90
22968;DHT22;11650;48.106;-1.696;2023-07-13T02:01:14;15.80;99.90
22968;DHT22;11650;48.106;-1.696;2023-07-13T02:03:40;15.80;99.90
22968;DHT22;11650;48.106;-1.696;2023-07-13T02:06:06;15.90;99.90
22968;DHT22;11650;48.106;-1.696;2023-07-13T02:08:33;15.90;99.90
22968;DHT22;11650;48.106;-1.696;2023-07-13T02:10:59;16.00;99.90
22968;DHT22;11650;48.106;-1.696;2023-07-13T02:13:25;16.00;99.90
22968;DHT22;11650;48.106;-1.696;2023-07-13T02:15:51;16.10;99.90
22968;DHT22;11650;48.106;-1.696;2023-07-13T02:18:17;16.10;99.90
22968;DHT22;11650;48.106;-1.696;2023-07-13T02:20:43;16.00;99.90
22968;DHT22;11650;48.106;-1.696;2023-07-13T02:23:09;16.00;99.90
22968;DHT22;11650;48.106;-1.696;2023-07-13T02:25:35;16.00;99.90
22968;DHT22;11650;48.106;-1.696;2023-07-13T02:28:00;15.90;99.90
22968;DHT22;11650;48.106;-1.696;2023-07-13T02:30:27;15.90;99.90
22968;DHT22;11650;48.106;-1.696;2023-07-13T02:32:57;15.90;99.90
22968;DHT22;11650;48.106;-1.696;2023-07-13T02:35:23;15.90;99.90
22968;DHT22;11650;48.106;-1.696;2023-07-13T02:37:49;15.90;99.90
22968;DHT22;11650;48.106;-1.696;2023-07-13T02:40:15;16.00;99.90
22968;DHT22;11650;48.106;-1.696;2023-07-13T02:42:40;15.90;99.90
22968;DHT22;11650;48.106;-1.696;2023-07-13T02:45:08;15.90;99.90
22968;DHT22;11650;48.106;-1.696;2023-07-13T02:47:34;16.00;99.90
22968;DHT22;11650;48.106;-1.696;2023-07-13T02:50:00;15.90;99.90
22968;DHT22;11650;48.106;-1.696;2023-07-13T02:52:25;16.00;99.90
22968;DHT22;11650;48.106;-1.696;2023-07-13T02:54:51;16.10;99.90
22968;DHT22;11650;48.106;-1.696;2023-07-13T02:57:16;16.00;99.90
22968;DHT22;11650;48.106;-1.696;2023-07-13T02:59:42;16.10;99.90
22968;DHT22;11650;48.106;-1.696;2023-07-13T03:02:08;16.10;99.90
22968;DHT22;11650;48.106;-1.696;2023-07-13T03:04:36;16.10;99.90
22968;DHT22;11650;48.106;-1.696;2023-07-13T03:07:02;16.10;99.90
22968;DHT22;11650;48.106;-1.696;2023-07-13T03:09:28;16.10;99.90
22968;DHT22;11650;48.106;-1.696;2023-07-13T03:11:55;16.10;99.90
22968;DHT22;11650;48.106;-1.696;2023-07-13T03:14:22;16.10;99.90
22968;DHT22;11650;48.106;-1.696;2023-07-13T03:16:48;16.10;99.90
22968;DHT22;11650;48.106;-1.696;2023-07-13T03:19:14;16.10;99.90
22968;DHT22;11650;48.106;-1.696;2023-07-13T03:21:40;16.10;99.90
22968;DHT22;11650;48.106;-1.696;2023-07-13T03:24:06;16.10;99.90
22968;DHT22;11650;48.106;-1.696;2023-07-13T03:26:32;16.00;99.90
22968;DHT22;11650;48.106;-1.696;2023-07-13T03:28:57;16.00;99.90
22968;DHT22;11650;48.106;-1.696;2023-07-13T03:31:26;16.00;99.90
22968;DHT22;11650;48.106;-1.696;2023-07-13T03:33:52;16.00;99.90
22968;DHT22;11650;48.106;-1.696;2023-07-13T03:36:21;15.90;99.90
22968;DHT22;11650;48.106;-1.696;2023-07-13T03:38:58;16.00;99.90
22968;DHT22;11650;48.106;-1.696;2023-07-13T03:41:25;16.00;99.90
22968;DHT22;11650;48.106;-1.696;2023-07-13T03:43:51;16.10;99.90
22968;DHT22;11650;48.106;-1.696;2023-07-13T03:46:18;16.10;99.90
22968;DHT22;11650;48.106;-1.696;2023-07-13T03:48:47;16.10;99.90
22968;DHT22;11650;48.106;-1.696;2023-07-13T03:51:14;16.10;99.90
22968;DHT22;11650;48.106;-1.696;2023-07-13T03:53:42;16.00;99.90
22968;DHT22;11650;48.106;-1.696;2023-07-13T03:56:08;16.00;99.90
22968;DHT22;11650;48.106;-1.696;2023-07-13T03:58:36;16.00;99.90
22968;DHT22;11650;48.106;-1.696;2023-07-13T04:01:04;16.00;99.90
22968;DHT22;11650;48.106;-1.696;2023-07-13T04:03:31;15.90;99.90
22968;DHT22;11650;48.106;-1.696;2023-07-13T04:06:03;16.10;99.90
22968;DHT22;11650;48.106;-1.696;2023-07-13T04:08:30;16.00;99.90
22968;DHT22;11650;48.106;-1.696;2023-07-13T04:10:57;16.00;99.90
22968;DHT22;11650;48.106;-1.696;2023-07-13T04:13:24;16.00;99.90
22968;DHT22;11650;48.106;-1.696;2023-07-13T04:15:50;15.90;99.90
22968;DHT22;11650;48.106;-1.696;2023-07-13T04:18:16;15.90;99.90
22968;DHT22;11650;48.106;-1.696;2023-07-13T04:20:42;15.90;99.90
22968;DHT22;11650;48.106;-1.696;2023-07-13T04:23:07;15.90;99.90
22968;DHT22;11650;48.106;-1.696;2023-07-13T04:25:33;15.90;99.90
22968;DHT22;11650;48.106;-1.696;2023-07-13T04:27:59;15.90;99.90
22968;DHT22;11650;48.106;-1.696;2023-07-13T04:30:25;15.90;99.90
22968;DHT22;11650;48.106;-1.696;2023-07-13T04:32:52;15.80;99.90
22968;DHT22;11650;48.106;-1.696;2023-07-13T04:35:19;15.80;99.90
22968;DHT22;11650;48.106;-1.696;2023-07-13T04:37:47;15.90;99.90
22968;DHT22;11650;48.106;-1.696;2023-07-13T04:40:14;15.90;99.90
22968;DHT22;11650;48.106;-1.696;2023-07-13T04:42:39;15.90;99.90
22968;DHT22;11650;48.106;-1.696;2023-07-13T04:45:06;15.90;99.90
22968;DHT22;11650;48.106;-1.696;2023-07-13T04:47:32;15.90;99.90
22968;DHT22;11650;48.106;-1.696;2023-07-13T04:49:58;15.90;99.90
22968;DHT22;11650;48.106;-1.696;2023-07-13T04:52:24;15.90;99.90
22968;DHT22;11650;48.106;-1.696;2023-07-13T04:54:50;15.90;99.90
22968;DHT22;11650;48.106;-1.696;2023-07-13T04:57:15;15.90;99.90
22968;DHT22;11650;48.106;-1.696;2023-07-13T04:59:41;15.90;99.90
22968;DHT22;11650;48.106;-1.696;2023-07-13T05:02:07;15.90;99.90
22968;DHT22;11650;48.106;-1.696;2023-07-13T05:04:33;15.90;99.90
22968;DHT22;11650;48.106;-1.696;2023-07-13T05:06:59;15.90;99.90
22968;DHT22;11650;48.106;-1.696;2023-07-13T05:09:24;15.90;99.90
22968;DHT22;11650;48.106;-1.696;2023-07-13T05:11:50;15.90;99.90
22968;DHT22;11650;48.106;-1.696;2023-07-13T05:14:16;16.00;99.90
22968;DHT22;11650;48.106;-1.696;2023-07-13T05:16:42;16.00;99.90
22968;DHT22;11650;48.106;-1.696;2023-07-13T05:19:08;16.00;99.90
22968;DHT22;11650;48.106;-1.696;2023-07-13T05:21:34;16.00;99.90
22968;DHT22;11650;48.106;-1.696;2023-07-13T05:24:00;16.10;99.90
22968;DHT22;11650;48.106;-1.696;2023-07-13T05:26:25;16.10;99.90
22968;DHT22;11650;48.106;-1.696;2023-07-13T05:28:51;16.10;99.90
22968;DHT22;11650;48.106;-1.696;2023-07-13T05:31:17;16.10;99.90
22968;DHT22;11650;48.106;-1.696;2023-07-13T05:33:42;16.10;99.90
22968;DHT22;11650;48.106;-1.696;2023-07-13T05:36:08;16.10;99.90
22968;DHT22;11650;48.106;-1.696;2023-07-13T05:38:34;16.20;99.90
22968;DHT22;11650;48.106;-1.696;2023-07-13T05:41:00;16.20;99.90
22968;DHT22;11650;48.106;-1.696;2023-07-13T05:43:26;16.20;99.90
22968;DHT22;11650;48.106;-1.696;2023-07-13T05:45:53;16.20;99.90
22968;DHT22;11650;48.106;-1.696;2023-07-13T05:48:19;16.20;99.90
22968;DHT22;11650;48.106;-1.696;2023-07-13T05:50:45;16.30;99.90
22968;DHT22;11650;48.106;-1.696;2023-07-13T05:53:12;16.30;99.90
22968;DHT22;11650;48.106;-1.696;2023-07-13T05:55:45;16.30;99.90
22968;DHT22;11650;48.106;-1.696;2023-07-13T05:58:19;16.30;99.90
22968;DHT22;11650;48.106;-1.696;2023-07-13T06:00:45;16.30;99.90
22968;DHT22;11650;48.106;-1.696;2023-07-13T06:03:11;16.40;99.90
22968;DHT22;11650;48.106;-1.696;2023-07-13T06:05:38;16.30;99.90
22968;DHT22;11650;48.106;-1.696;2023-07-13T06:08:05;16.40;99.90
22968;DHT22;11650;48.106;-1.696;2023-07-13T06:10:35;16.40;99.90
22968;DHT22;11650;48.106;-1.696;2023-07-13T06:13:01;16.50;99.90
22968;DHT22;11650;48.106;-1.696;2023-07-13T06:15:27;16.60;99.90
22968;DHT22;11650;48.106;-1.696;2023-07-13T06:17:52;16.60;99.90
22968;DHT22;11650;48.106;-1.696;2023-07-13T06:20:18;16.60;99.90
22968;DHT22;11650;48.106;-1.696;2023-07-13T06:22:43;16.60;99.90
22968;DHT22;11650;48.106;-1.696;2023-07-13T06:25:09;16.60;99.90
22968;DHT22;11650;48.106;-1.696;2023-07-13T06:27:35;16.60;99.90
22968;DHT22;11650;48.106;-1.696;2023-07-13T06:30:00;16.60;99.90
22968;DHT22;11650;48.106;-1.696;2023-07-13T06:32:26;16.60;99.90
22968;DHT22;11650;48.106;-1.696;2023-07-13T06:34:52;16.80;99.90
22968;DHT22;11650;48.106;-1.696;2023-07-13T06:37:18;16.80;99.90
22968;DHT22;11650;48.106;-1.696;2023-07-13T06:39:44;16.80;99.90
22968;DHT22;11650;48.106;-1.696;2023-07-13T06:42:10;16.90;99.90
22968;DHT22;11650;48.106;-1.696;2023-07-13T06:44:36;17.00;99.90
22968;DHT22;11650;48.106;-1.696;2023-07-13T06:47:02;17.10;99.90
22968;DHT22;11650;48.106;-1.696;2023-07-13T06:49:27;17.20;99.90
22968;DHT22;11650;48.106;-1.696;2023-07-13T06:51:53;17.20;99.90
22968;DHT22;11650;48.106;-1.696;2023-07-13T06:54:19;17.10;99.90
22968;DHT22;11650;48.106;-1.696;2023-07-13T06:56:44;17.10;99.90
22968;DHT22;11650;48.106;-1.696;2023-07-13T06:59:10;17.20;99.90
22968;DHT22;11650;48.106;-1.696;2023-07-13T07:01:35;17.20;99.90
22968;DHT22;11650;48.106;-1.696;2023-07-13T07:04:01;17.20;99.90
22968;DHT22;11650;48.106;-1.696;2023-07-13T07:06:28;17.20;99.90
22968;DHT22;11650;48.106;-1.696;2023-07-13T07:08:53;17.20;99.90
22968;DHT22;11650;48.106;-1.696;2023-07-13T07:11:24;17.30;99.90
22968;DHT22;11650;48.106;-1.696;2023-07-13T07:13:51;17.40;99.90
22968;DHT22;11650;48.106;-1.696;2023-07-13T07:16:18;17.50;99.90
22968;DHT22;11650;48.106;-1.696;2023-07-13T07:18:44;17.60;99.90
22968;DHT22;11650;48.106;-1.696;2023-07-13T07:21:09;17.60;99.90
22968;DHT22;11650;48.106;-1.696;2023-07-13T07:23:35;17.60;99.90
22968;DHT22;11650;48.106;-1.696;2023-07-13T07:26:01;17.60;99.90
22968;DHT22;11650;48.106;-1.696;2023-07-13T07:28:27;17.70;99.90
22968;DHT22;11650;48.106;-1.696;2023-07-13T07:30:55;17.70;99.90
22968;DHT22;11650;48.106;-1.696;2023-07-13T07:33:21;17.80;99.90
22968;DHT22;11650;48.106;-1.696;2023-07-13T07:35:47;17.80;99.90
22968;DHT22;11650;48.106;-1.696;2023-07-13T07:38:12;18.00;99.90
22968;DHT22;11650;48.106;-1.696;2023-07-13T07:40:40;18.10;99.90
22968;DHT22;11650;48.106;-1.696;2023-07-13T07:43:10;18.10;99.90
22968;DHT22;11650;48.106;-1.696;2023-07-13T07:45:36;18.20;99.90
22968;DHT22;11650;48.106;-1.696;2023-07-13T07:48:03;18.30;99.90
22968;DHT22;11650;48.106;-1.696;2023-07-13T07:50:30;18.40;99.90
22968;DHT22;11650;48.106;-1.696;2023-07-13T07:52:55;18.70;99.90
22968;DHT22;11650;48.106;-1.696;2023-07-13T07:55:22;18.70;99.90
22968;DHT22;11650;48.106;-1.696;2023-07-13T07:57:48;18.70;99.90
22968;DHT22;11650;48.106;-1.696;2023-07-13T08:00:15;18.90;99.90
22968;DHT22;11650;48.106;-1.696;2023-07-13T08:02:41;19.00;99.90
22968;DHT22;11650;48.106;-1.696;2023-07-13T08:05:08;19.00;99.90
22968;DHT22;11650;48.106;-1.696;2023-07-13T08:07:35;19.10;99.90
22968;DHT22;11650;48.106;-1.696;2023-07-13T08:10:01;19.20;99.90
22968;DHT22;11650;48.106;-1.696;2023-07-13T08:12:26;19.40;99.90
22968;DHT22;11650;48.106;-1.696;2023-07-13T08:14:52;19.60;99.90
22968;DHT22;11650;48.106;-1.696;2023-07-13T08:17:19;19.60;99.90
22968;DHT22;11650;48.106;-1.696;2023-07-13T08:19:45;19.70;99.90
22968;DHT22;11650;48.106;-1.696;2023-07-13T08:22:11;19.70;99.90
22968;DHT22;11650;48.106;-1.696;2023-07-13T08:24:37;19.60;99.90
22968;DHT22;11650;48.106;-1.696;2023-07-13T08:27:03;19.50;99.90
22968;DHT22;11650;48.106;-1.696;2023-07-13T08:29:28;19.70;99.90
22968;DHT22;11650;48.106;-1.696;2023-07-13T08:31:57;19.60;99.90
22968;DHT22;11650;48.106;-1.696;2023-07-13T08:34:23;19.80;99.90
22968;DHT22;11650;48.106;-1.696;2023-07-13T08:36:49;20.00;99.90
22968;DHT22;11650;48.106;-1.696;2023-07-13T08:39:14;19.80;99.90
22968;DHT22;11650;48.106;-1.696;2023-07-13T08:41:40;20.00;99.90
22968;DHT22;11650;48.106;-1.696;2023-07-13T08:44:16;20.00;99.90
22968;DHT22;11650;48.106;-1.696;2023-07-13T08:46:45;20.00;99.90
22968;DHT22;11650;48.106;-1.696;2023-07-13T08:49:15;20.10;99.90
22968;DHT22;11650;48.106;-1.696;2023-07-13T08:52:02;20.20;99.90
22968;DHT22;11650;48.106;-1.696;2023-07-13T08:54:35;20.20;99.90
22968;DHT22;11650;48.106;-1.696;2023-07-13T08:57:20;20.40;99.90
22968;DHT22;11650;48.106;-1.696;2023-07-13T08:59:47;20.50;99.90
22968;DHT22;11650;48.106;-1.696;2023-07-13T09:05:01;20.40;99.90
22968;DHT22;11650;48.106;-1.696;2023-07-13T09:10:28;20.60;99.90
22968;DHT22;11650;48.106;-1.696;2023-07-13T09:15:40;20.90;99.90
22968;DHT22;11650;48.106;-1.696;2023-07-13T09:20:46;21.10;99.90
22968;DHT22;11650;48.106;-1.696;2023-07-13T09:23:20;21.40;99.90
22968;DHT22;11650;48.106;-1.696;2023-07-13T09:25:54;21.70;99.90
22968;DHT22;11650;48.106;-1.696;2023-07-13T09:28:28;21.80;99.90
22968;DHT22;11650;48.106;-1.696;2023-07-13T09:31:17;22.00;99.90
22968;DHT22;11650;48.106;-1.696;2023-07-13T09:33:47;21.90;99.90
22968;DHT22;11650;48.106;-1.696;2023-07-13T09:38:45;21.40;99.90
22968;DHT22;11650;48.106;-1.696;2023-07-13T09:44:18;21.20;99.90
22968;DHT22;11650;48.106;-1.696;2023-07-13T09:46:54;21.30;99.90
22968;DHT22;11650;48.106;-1.696;2023-07-13T09:49:28;21.40;99.90
22968;DHT22;11650;48.106;-1.696;2023-07-13T09:52:00;21.10;99.90
22968;DHT22;11650;48.106;-1.696;2023-07-13T09:54:26;21.00;99.90
22968;DHT22;11650;48.106;-1.696;2023-07-13T09:56:59;21.10;99.90
22968;DHT22;11650;48.106;-1.696;2023-07-13T09:59:33;21.40;99.90
22968;DHT22;11650;48.106;-1.696;2023-07-13T10:01:59;21.50;99.90
22968;DHT22;11650;48.106;-1.696;2023-07-13T10:04:32;21.60;99.90
22968;DHT22;11650;48.106;-1.696;2023-07-13T10:07:11;21.70;99.90
22968;DHT22;11650;48.106;-1.696;2023-07-13T10:09:38;21.80;99.90
22968;DHT22;11650;48.106;-1.696;2023-07-13T10:12:13;21.90;99.90
22968;DHT22;11650;48.106;-1.696;2023-07-13T10:14:40;22.10;99.90
22968;DHT22;11650;48.106;-1.696;2023-07-13T10:17:11;22.50;99.90
22968;DHT22;11650;48.106;-1.696;2023-07-13T10:19:38;22.40;99.90
22968;DHT22;11650;48.106;-1.696;2023-07-13T10:22:24;22.60;99.90
22968;DHT22;11650;48.106;-1.696;2023-07-13T10:24:53;22.80;99.90
22968;DHT22;11650;48.106;-1.696;2023-07-13T10:27:36;23.20;99.90
22968;DHT22;11650;48.106;-1.696;2023-07-13T10:30:24;23.30;99.90
22968;DHT22;11650;48.106;-1.696;2023-07-13T10:32:51;22.90;99.90
22968;DHT22;11650;48.106;-1.696;2023-07-13T10:35:19;22.70;99.90
22968;DHT22;11650;48.106;-1.696;2023-07-13T10:38:04;22.80;99.90
22968;DHT22;11650;48.106;-1.696;2023-07-13T10:40:40;23.30;99.90
22968;DHT22;11650;48.106;-1.696;2023-07-13T10:43:55;23.50;99.90
22968;DHT22;11650;48.106;-1.696;2023-07-13T10:46:07;23.90;99.90
22968;DHT22;11650;48.106;-1.696;2023-07-13T10:48:34;24.00;99.90
22968;DHT22;11650;48.106;-1.696;2023-07-13T10:51:03;23.70;99.90
22968;DHT22;11650;48.106;-1.696;2023-07-13T10:53:33;23.80;99.90
22968;DHT22;11650;48.106;-1.696;2023-07-13T10:56:02;23.90;99.90
22968;DHT22;11650;48.106;-1.696;2023-07-13T10:58:36;23.90;99.90
22968;DHT22;11650;48.106;-1.696;2023-07-13T11:01:14;23.80;99.90
22968;DHT22;11650;48.106;-1.696;2023-07-13T11:14:02;23.60;99.90
22968;DHT22;11650;48.106;-1.696;2023-07-13T11:16:46;23.90;99.90
22968;DHT22;11650;48.106;-1.696;2023-07-13T11:22:09;24.20;99.90
22968;DHT22;11650;48.106;-1.696;2023-07-13T11:25:20;24.70;99.90
22968;DHT22;11650;48.106;-1.696;2023-07-13T11:27:51;24.40;99.90
22968;DHT22;11650;48.106;-1.696;2023-07-13T11:33:11;24.40;99.90
22968;DHT22;11650;48.106;-1.696;2023-07-13T11:35:45;24.30;99.90
22968;DHT22;11650;48.106;-1.696;2023-07-13T11:38:20;23.80;99.90
22968;DHT22;11650;48.106;-1.696;2023-07-13T11:40:48;24.00;99.90
22968;DHT22;11650;48.106;-1.696;2023-07-13T11:43:16;24.20;99.90
22968;DHT22;11650;48.106;-1.696;2023-07-13T11:45:43;24.10;99.90
22968;DHT22;11650;48.106;-1.696;2023-07-13T11:48:28;24.10;99.90
22968;DHT22;11650;48.106;-1.696;2023-07-13T11:51:02;23.60;99.90
22968;DHT22;11650;48.106;-1.696;2023-07-13T11:53:39;23.60;99.90
22968;DHT22;11650;48.106;-1.696;2023-07-13T11:56:05;23.50;99.90
22968;DHT22;11650;48.106;-1.696;2023-07-13T11:58:32;23.80;99.90
22968;DHT22;11650;48.106;-1.696;2023-07-13T12:01:02;23.70;99.90
22968;DHT22;11650;48.106;-1.696;2023-07-13T12:03:30;23.50;99.90
22968;DHT22;11650;48.106;-1.696;2023-07-13T12:06:05;23.80;99.90
22968;DHT22;11650;48.106;-1.696;2023-07-13T12:08:38;24.00;99.90
22968;DHT22;11650;48.106;-1.696;2023-07-13T12:11:14;24.10;99.90
22968;DHT22;11650;48.106;-1.696;2023-07-13T12:13:41;24.20;99.90
22968;DHT22;11650;48.106;-1.696;2023-07-13T12:16:22;24.40;99.90
22968;DHT22;11650;48.106;-1.696;2023-07-13T12:18:52;24.30;99.90
22968;DHT22;11650;48.106;-1.696;2023-07-13T12:21:19;24.40;99.90
22968;DHT22;11650;48.106;-1.696;2023-07-13T12:23:48;24.50;99.90
22968;DHT22;11650;48.106;-1.696;2023-07-13T12:26:15;24.50;99.90
22968;DHT22;11650;48.106;-1.696;2023-07-13T12:28:48;24.70;99.90
22968;DHT22;11650;48.106;-1.696;2023-07-13T12:34:13;24.50;99.90
22968;DHT22;11650;48.106;-1.696;2023-07-13T12:36:49;24.80;99.90
22968;DHT22;11650;48.106;-1.696;2023-07-13T12:39:22;25.00;99.90
22968;DHT22;11650;48.106;-1.696;2023-07-13T12:41:51;25.00;99.90
22968;DHT22;11650;48.106;-1.696;2023-07-13T12:44:18;25.00;99.90
22968;DHT22;11650;48.106;-1.696;2023-07-13T12:47:06;24.90;99.90
22968;DHT22;11650;48.106;-1.696;2023-07-13T12:49:41;24.60;99.90
22968;DHT22;11650;48.106;-1.696;2023-07-13T12:52:15;24.50;99.90
22968;DHT22;11650;48.106;-1.696;2023-07-13T12:54:41;24.60;99.90
22968;DHT22;11650;48.106;-1.696;2023-07-13T12:57:14;24.60;99.90
22968;DHT22;11650;48.106;-1.696;2023-07-13T12:59:41;24.80;99.90
22968;DHT22;11650;48.106;-1.696;2023-07-13T13:02:29;24.80;99.90
22968;DHT22;11650;48.106;-1.696;2023-07-13T13:04:57;24.80;99.90
22968;DHT22;11650;48.106;-1.696;2023-07-13T13:07:24;24.60;99.90
22968;DHT22;11650;48.106;-1.696;2023-07-13T13:09:50;24.50;99.90
22968;DHT22;11650;48.106;-1.696;2023-07-13T13:12:15;24.60;99.90
22968;DHT22;11650;48.106;-1.696;2023-07-13T13:14:42;24.80;99.90
22968;DHT22;11650;48.106;-1.696;2023-07-13T13:17:26;24.50;99.90
22968;DHT22;11650;48.106;-1.696;2023-07-13T13:19:53;24.20;99.90
22968;DHT22;11650;48.106;-1.696;2023-07-13T13:22:20;24.50;99.90
22968;DHT22;11650;48.106;-1.696;2023-07-13T13:24:46;24.70;99.90
22968;DHT22;11650;48.106;-1.696;2023-07-13T13:27:17;25.00;99.90
22968;DHT22;11650;48.106;-1.696;2023-07-13T13:29:43;24.80;99.90
22968;DHT22;11650;48.106;-1.696;2023-07-13T13:32:13;24.90;99.90
22968;DHT22;11650;48.106;-1.696;2023-07-13T13:34:39;24.80;99.90
22968;DHT22;11650;48.106;-1.696;2023-07-13T13:37:09;25.70;99.90
22968;DHT22;11650;48.106;-1.696;2023-07-13T13:39:41;25.70;99.90
22968;DHT22;11650;48.106;-1.696;2023-07-13T13:42:09;25.20;99.90
22968;DHT22;11650;48.106;-1.696;2023-07-13T13:44:35;25.20;99.90
22968;DHT22;11650;48.106;-1.696;2023-07-13T13:47:01;24.80;99.90
22968;DHT22;11650;48.106;-1.696;2023-07-13T13:49:29;25.10;99.90
22968;DHT22;11650;48.106;-1.696;2023-07-13T13:51:55;24.70;99.90
22968;DHT22;11650;48.106;-1.696;2023-07-13T13:54:22;24.80;99.90
22968;DHT22;11650;48.106;-1.696;2023-07-13T13:56:50;25.00;99.90
22968;DHT22;11650;48.106;-1.696;2023-07-13T13:59:17;24.80;99.90
22968;DHT22;11650;48.106;-1.696;2023-07-13T14:01:45;24.50;99.90
22968;DHT22;11650;48.106;-1.696;2023-07-13T14:04:29;24.40;99.90
22968;DHT22;11650;48.106;-1.696;2023-07-13T14:06:54;25.10;99.90
22968;DHT22;11650;48.106;-1.696;2023-07-13T14:09:20;24.80;99.90
22968;DHT22;11650;48.106;-1.696;2023-07-13T14:11:48;25.10;99.90
22968;DHT22;11650;48.106;-1.696;2023-07-13T14:14:17;26.20;99.90
22968;DHT22;11650;48.106;-1.696;2023-07-13T14:16:43;26.70;99.90
22968;DHT22;11650;48.106;-1.696;2023-07-13T14:19:13;26.30;99.90
22968;DHT22;11650;48.106;-1.696;2023-07-13T14:21:39;25.90;99.90
22968;DHT22;11650;48.106;-1.696;2023-07-13T14:24:05;26.20;99.90
22968;DHT22;11650;48.106;-1.696;2023-07-13T14:26:38;26.00;99.90
22968;DHT22;11650;48.106;-1.696;2023-07-13T14:29:11;25.90;99.90
22968;DHT22;11650;48.106;-1.696;2023-07-13T14:31:37;25.90;99.90
22968;DHT22;11650;48.106;-1.696;2023-07-13T14:34:03;25.70;99.90
22968;DHT22;11650;48.106;-1.696;2023-07-13T14:36:40;25.70;99.90
22968;DHT22;11650;48.106;-1.696;2023-07-13T14:39:16;25.10;99.90
22968;DHT22;11650;48.106;-1.696;2023-07-13T14:41:43;25.00;99.90
22968;DHT22;11650;48.106;-1.696;2023-07-13T14:44:12;24.80;99.90
22968;DHT22;11650;48.106;-1.696;2023-07-13T14:46:38;24.50;99.90
22968;DHT22;11650;48.106;-1.696;2023-07-13T14:49:07;24.50;99.90
22968;DHT22;11650;48.106;-1.696;2023-07-13T14:51:37;24.50;99.90
22968;DHT22;11650;48.106;-1.696;2023-07-13T14:54:04;24.40;99.90
22968;DHT22;11650;48.106;-1.696;2023-07-13T14:56:30;24.80;99.90
22968;DHT22;11650;48.106;-1.696;2023-07-13T14:58:56;25.50;99.90
22968;DHT22;11650;48.106;-1.696;2023-07-13T15:01:22;25.40;99.90
22968;DHT22;11650;48.106;-1.696;2023-07-13T15:03:50;25.30;99.90
22968;DHT22;11650;48.106;-1.696;2023-07-13T15:06:16;24.90;99.90
22968;DHT22;11650;48.106;-1.696;2023-07-13T15:08:42;24.80;99.90
22968;DHT22;11650;48.106;-1.696;2023-07-13T15:11:09;24.80;99.90
22968;DHT22;11650;48.106;-1.696;2023-07-13T15:13:37;24.60;99.90
22968;DHT22;11650;48.106;-1.696;2023-07-13T15:16:04;24.60;99.90
22968;DHT22;11650;48.106;-1.696;2023-07-13T15:18:30;24.90;99.90
22968;DHT22;11650;48.106;-1.696;2023-07-13T15:20:56;25.00;99.90
22968;DHT22;11650;48.106;-1.696;2023-07-13T15:23:25;24.90;99.90
22968;DHT22;11650;48.106;-1.696;2023-07-13T15:25:51;25.10;99.90
22968;DHT22;11650;48.106;-1.696;2023-07-13T15:28:17;25.20;99.90
22968;DHT22;11650;48.106;-1.696;2023-07-13T15:30:45;25.10;99.90
22968;DHT22;11650;48.106;-1.696;2023-07-13T15:33:16;25.00;99.90
22968;DHT22;11650;48.106;-1.696;2023-07-13T15:35:45;24.80;99.90
22968;DHT22;11650;48.106;-1.696;2023-07-13T15:38:17;25.20;99.90
22968;DHT22;11650;48.106;-1.696;2023-07-13T15:40:43;25.90;99.90
22968;DHT22;11650;48.106;-1.696;2023-07-13T15:43:13;25.60;99.90
22968;DHT22;11650;48.106;-1.696;2023-07-13T15:45:39;25.70;99.90
22968;DHT22;11650;48.106;-1.696;2023-07-13T15:48:20;25.60;99.90
22968;DHT22;11650;48.106;-1.696;2023-07-13T15:50:48;25.70;99.90
22968;DHT22;11650;48.106;-1.696;2023-07-13T15:53:23;25.60;99.90
22968;DHT22;11650;48.106;-1.696;2023-07-13T15:55:49;25.80;99.90
22968;DHT22;11650;48.106;-1.696;2023-07-13T15:58:16;25.90;99.90
22968;DHT22;11650;48.106;-1.696;2023-07-13T16:00:42;26.20;99.90
22968;DHT22;11650;48.106;-1.696;2023-07-13T16:03:08;26.10;99.90